sensor_id;sensor_type;location;lat;lon;timestamp;pressure;altitude;pressure_sealevel;temperature;humidity
73566;BME280;61846;52.970;-3.168;2023-04-09T15:22:02;100650.11;;;8.50;56.39
73566;BME280;61846;52.970;-3.168;2023-04-09T15:24:24;100637.23;;;10.56;52.09
73566;BME280;61846;52.970;-3.168;2023-04-09T15:26:50;100635.67;;;10.55;51.82
73566;BME280;61846;52.970;-3.168;2023-04-09T15:29:15;100622.41;;;10.95;50.81
73566;BME280;61846;52.970;-3.168;2023-04-09T15:31:41;100620.26;;;11.47;48.80
73566;BME280;61846;52.970;-3.168;2023-04-09T15:34:06;100620.33;;;10.89;49.49
73566;BME280;61846;52.970;-3.168;2023-04-09T15:36:31;100613.04;;;11.61;48.32
73566;BME280;61846;52.970;-3.168;2023-04-09T15:38:56;100614.11;;;10.68;49.23
73566;BME280;61846;52.970;-3.168;2023-04-09T15:41:22;100603.91;;;12.66;46.20
73566;BME280;61846;52.970;-3.168;2023-04-09T15:43:47;100601.86;;;10.78;47.91
73566;BME280;61846;52.970;-3.168;2023-04-09T15:46:12;100593.67;;;12.16;46.14
73566;BME280;61846;52.970;-3.168;2023-04-09T15:48:38;100600.09;;;12.10;46.83
73566;BME280;61846;52.970;-3.168;2023-04-09T15:51:04;100597.70;;;10.85;49.03
73566;BME280;61846;52.970;-3.168;2023-04-09T16:04:12;100573.34;;;8.83;54.24
73566;BME280;61846;52.970;-3.168;2023-04-09T16:06:34;100567.27;;;11.81;49.06
73566;BME280;61846;52.970;-3.168;2023-04-09T16:09:00;100566.60;;;10.88;50.01
73566;BME280;61846;52.970;-3.168;2023-04-09T16:11:25;100569.76;;;11.34;48.81
73566;BME280;61846;52.970;-3.168;2023-04-09T16:13:51;100569.19;;;11.61;48.25
73566;BME280;61846;52.970;-3.168;2023-04-09T16:16:17;100555.33;;;11.52;48.55
73566;BME280;61846;52.970;-3.168;2023-04-09T16:18:42;100552.06;;;12.93;46.12
73566;BME280;61846;52.970;-3.168;2023-04-09T16:21:07;100547.96;;;12.34;46.81
73566;BME280;61846;52.970;-3.168;2023-04-09T16:23:32;100552.93;;;12.07;47.11
73566;BME280;61846;52.970;-3.168;2023-04-09T16:25:58;100552.12;;;12.09;47.59
73566;BME280;61846;52.970;-3.168;2023-04-09T16:28:23;100544.75;;;12.48;46.58
73566;BME280;61846;52.970;-3.168;2023-04-09T16:30:49;100544.65;;;12.64;45.88
73566;BME280;61846;52.970;-3.168;2023-04-09T16:33:13;100535.97;;;13.58;44.69
73566;BME280;61846;52.970;-3.168;2023-04-09T16:35:38;100531.57;;;12.94;44.35
73566;BME280;61846;52.970;-3.168;2023-04-09T16:38:04;100523.66;;;12.51;46.66
73566;BME280;61846;52.970;-3.168;2023-04-09T16:40:30;100519.27;;;11.50;48.34
73566;BME280;61846;52.970;-3.168;2023-04-09T16:42:55;100514.41;;;12.29;47.84
73566;BME280;61846;52.970;-3.168;2023-04-09T16:45:21;100516.76;;;12.44;45.98
73566;BME280;61846;52.970;-3.168;2023-04-09T16:47:46;100521.01;;;11.53;48.33
73566;BME280;61846;52.970;-3.168;2023-04-09T16:50:12;100522.82;;;12.48;46.33
73566;BME280;61846;52.970;-3.168;2023-04-09T16:52:37;100519.01;;;13.21;43.92
73566;BME280;61846;52.970;-3.168;2023-04-09T16:55:03;100518.52;;;13.20;44.10
73566;BME280;61846;52.970;-3.168;2023-04-09T16:57:28;100523.17;;;12.63;44.66
73566;BME280;61846;52.970;-3.168;2023-04-09T16:59:54;100516.08;;;12.74;44.77
73566;BME280;61846;52.970;-3.168;2023-04-09T17:02:19;100520.13;;;12.49;44.83
73566;BME280;61846;52.970;-3.168;2023-04-09T17:04:45;100506.58;;;13.30;43.00
73566;BME280;61846;52.970;-3.168;2023-04-09T17:07:10;100511.76;;;11.95;46.25
73566;BME280;61846;52.970;-3.168;2023-04-09T17:09:36;100508.27;;;11.73;45.69
73566;BME280;61846;52.970;-3.168;2023-04-09T17:12:01;100499.10;;;13.27;43.28
73566;BME280;61846;52.970;-3.168;2023-04-09T17:14:27;100500.23;;;12.92;42.79
73566;BME280;61846;52.970;-3.168;2023-04-09T17:16:52;100504.13;;;12.67;44.29
73566;BME280;61846;52.970;-3.168;2023-04-09T17:19:18;100507.34;;;11.70;43.67
73566;BME280;61846;52.970;-3.168;2023-04-09T17:21:44;100508.26;;;11.84;44.37
73566;BME280;61846;52.970;-3.168;2023-04-09T17:24:09;100499.21;;;12.43;43.19
73566;BME280;61846;52.970;-3.168;2023-04-09T17:26:35;100513.99;;;13.11;41.19
73566;BME280;61846;52.970;-3.168;2023-04-09T17:29:00;100504.83;;;12.35;42.25
73566;BME280;61846;52.970;-3.168;2023-04-09T17:31:25;100496.91;;;12.10;43.03
73566;BME280;61846;52.970;-3.168;2023-04-09T17:33:51;100495.14;;;12.13;42.18
73566;BME280;61846;52.970;-3.168;2023-04-09T17:36:16;100487.94;;;11.17;44.09
73566;BME280;61846;52.970;-3.168;2023-04-09T17:38:42;100492.41;;;11.10;44.32
73566;BME280;61846;52.970;-3.168;2023-04-09T17:41:07;100476.54;;;10.55;45.26
73566;BME280;61846;52.970;-3.168;2023-04-09T17:43:32;100478.87;;;11.48;43.74
73566;BME280;61846;52.970;-3.168;2023-04-09T17:45:58;100472.14;;;11.35;43.33
73566;BME280;61846;52.970;-3.168;2023-04-09T17:48:23;100480.26;;;11.81;42.46
73566;BME280;61846;52.970;-3.168;2023-04-09T17:50:48;100479.33;;;12.71;40.86
73566;BME280;61846;52.970;-3.168;2023-04-09T17:53:13;100471.49;;;11.24;43.56
73566;BME280;61846;52.970;-3.168;2023-04-09T17:55:45;100472.06;;;11.71;42.77
73566;BME280;61846;52.970;-3.168;2023-04-09T17:58:04;100463.65;;;11.64;42.22
73566;BME280;61846;52.970;-3.168;2023-04-09T18:00:29;100468.68;;;12.15;42.30
73566;BME280;61846;52.970;-3.168;2023-04-09T18:02:55;100466.51;;;11.73;42.34
73566;BME280;61846;52.970;-3.168;2023-04-09T18:05:20;100469.27;;;10.78;44.01
73566;BME280;61846;52.970;-3.168;2023-04-09T18:07:45;100467.13;;;11.60;43.08
73566;BME280;61846;52.970;-3.168;2023-04-09T18:10:11;100465.68;;;10.93;43.41
73566;BME280;61846;52.970;-3.168;2023-04-09T18:12:36;100456.08;;;10.84;44.31
73566;BME280;61846;52.970;-3.168;2023-04-09T18:15:02;100450.08;;;11.16;43.51
73566;BME280;61846;52.970;-3.168;2023-04-09T18:17:27;100451.76;;;10.36;44.87
73566;BME280;61846;52.970;-3.168;2023-04-09T19:34:02;100419.27;;;11.00;46.55
73566;BME280;61846;52.970;-3.168;2023-04-09T19:36:26;100412.53;;;12.05;43.40
73566;BME280;61846;52.970;-3.168;2023-04-09T19:38:52;100403.97;;;13.38;40.97
73566;BME280;61846;52.970;-3.168;2023-04-09T19:41:18;100399.84;;;12.62;41.48
73566;BME280;61846;52.970;-3.168;2023-04-09T19:43:45;100397.70;;;13.39;39.93
73566;BME280;61846;52.970;-3.168;2023-04-09T19:46:09;100396.17;;;13.95;38.75
73566;BME280;61846;52.970;-3.168;2023-04-09T19:51:00;100386.37;;;12.72;40.12
73566;BME280;61846;52.970;-3.168;2023-04-09T19:53:26;100386.46;;;12.50;40.50
73566;BME280;61846;52.970;-3.168;2023-04-09T19:55:51;100378.02;;;12.17;40.96
73566;BME280;61846;52.970;-3.168;2023-04-09T19:58:17;100382.66;;;12.49;40.46
73566;BME280;61846;52.970;-3.168;2023-04-09T20:00:42;100391.33;;;12.62;40.01
73566;BME280;61846;52.970;-3.168;2023-04-09T20:03:07;100385.80;;;11.72;40.78
73566;BME280;61846;52.970;-3.168;2023-04-09T20:05:32;100381.59;;;12.68;39.90
73566;BME280;61846;52.970;-3.168;2023-04-09T20:07:58;100385.30;;;12.86;39.75
73566;BME280;61846;52.970;-3.168;2023-04-09T20:10:24;100378.50;;;10.23;44.57
73566;BME280;61846;52.970;-3.168;2023-04-09T20:12:50;100378.35;;;10.45;44.43
73566;BME280;61846;52.970;-3.168;2023-04-09T20:15:15;100370.21;;;11.05;44.03
73566;BME280;61846;52.970;-3.168;2023-04-09T20:17:40;100376.14;;;11.48;43.23
73566;BME280;61846;52.970;-3.168;2023-04-09T20:20:07;100386.08;;;11.02;45.00
73566;BME280;61846;52.970;-3.168;2023-04-09T20:22:32;100383.05;;;10.32;47.18
73566;BME280;61846;52.970;-3.168;2023-04-09T20:24:57;100385.70;;;11.58;44.42
73566;BME280;61846;52.970;-3.168;2023-04-09T20:27:23;100374.08;;;11.98;43.63
73566;BME280;61846;52.970;-3.168;2023-04-09T20:29:48;100373.70;;;11.22;43.33
73566;BME280;61846;52.970;-3.168;2023-04-09T20:32:13;100366.78;;;13.59;40.04
73566;BME280;61846;52.970;-3.168;2023-04-09T20:34:39;100359.28;;;13.02;40.32
73566;BME280;61846;52.970;-3.168;2023-04-09T20:37:05;100361.29;;;11.03;43.80
73566;BME280;61846;52.970;-3.168;2023-04-09T20:39:30;100354.06;;;12.21;42.25
73566;BME280;61846;52.970;-3.168;2023-04-09T20:41:56;100351.87;;;13.07;40.68
73566;BME280;61846;52.970;-3.168;2023-04-09T20:44:21;100357.06;;;11.92;42.71
73566;BME280;61846;52.970;-3.168;2023-04-09T20:46:46;100356.41;;;11.10;44.47
73566;BME280;61846;52.970;-3.168;2023-04-09T20:49:12;100352.32;;;13.52;40.08
73566;BME280;61846;52.970;-3.168;2023-04-09T20:51:37;100345.66;;;13.47;39.82
73566;BME280;61846;52.970;-3.168;2023-04-09T20:54:02;100343.33;;;13.12;40.15
73566;BME280;61846;52.970;-3.168;2023-04-09T20:56:28;100342.84;;;12.70;40.87
73566;BME280;61846;52.970;-3.168;2023-04-09T20:58:55;100347.67;;;12.75;40.98
73566;BME280;61846;52.970;-3.168;2023-04-09T21:01:20;100346.59;;;12.60;42.74
73566;BME280;61846;52.970;-3.168;2023-04-09T21:03:45;100344.86;;;12.89;41.92
73566;BME280;61846;52.970;-3.168;2023-04-09T21:06:11;100344.63;;;10.79;44.97
73566;BME280;61846;52.970;-3.168;2023-04-09T21:08:37;100329.76;;;13.14;41.63
73566;BME280;61846;52.970;-3.168;2023-04-09T21:11:02;100331.89;;;13.98;39.60
73566;BME280;61846;52.970;-3.168;2023-04-09T21:13:28;100321.83;;;14.45;38.61
73566;BME280;61846;52.970;-3.168;2023-04-09T21:15:53;100312.83;;;13.77;39.46
73566;BME280;61846;52.970;-3.168;2023-04-09T21:18:19;100313.06;;;11.41;43.19
73566;BME280;61846;52.970;-3.168;2023-04-09T21:20:45;100301.81;;;12.96;40.78
73566;BME280;61846;52.970;-3.168;2023-04-09T21:23:10;100297.64;;;11.94;42.89
73566;BME280;61846;52.970;-3.168;2023-04-09T21:25:35;100299.79;;;10.80;45.26
73566;BME280;61846;52.970;-3.168;2023-04-09T21:28:01;100286.90;;;12.53;42.03
73566;BME280;61846;52.970;-3.168;2023-04-09T21:30:26;100288.13;;;12.21;42.53
73566;BME280;61846;52.970;-3.168;2023-04-09T21:32:52;100284.26;;;11.52;43.97
73566;BME280;61846;52.970;-3.168;2023-04-09T21:35:18;100283.65;;;12.92;41.40
73566;BME280;61846;52.970;-3.168;2023-04-09T21:37:43;100275.40;;;11.62;44.14
73566;BME280;61846;52.970;-3.168;2023-04-09T21:40:09;100280.44;;;11.95;43.33
73566;BME280;61846;52.970;-3.168;2023-04-09T21:42:34;100282.17;;;12.24;42.61
73566;BME280;61846;52.970;-3.168;2023-04-09T21:45:00;100270.74;;;12.88;42.33
73566;BME280;61846;52.970;-3.168;2023-04-09T21:47:25;100265.56;;;11.46;44.71
73566;BME280;61846;52.970;-3.168;2023-04-09T21:49:51;100246.06;;;12.29;42.39
73566;BME280;61846;52.970;-3.168;2023-04-09T21:52:17;100242.28;;;10.89;45.91
73566;BME280;61846;52.970;-3.168;2023-04-09T21:54:43;100240.79;;;11.09;45.86
73566;BME280;61846;52.970;-3.168;2023-04-09T21:57:08;100231.78;;;12.12;43.25
73566;BME280;61846;52.970;-3.168;2023-04-09T21:59:33;100232.44;;;13.53;40.88
73566;BME280;61846;52.970;-3.168;2023-04-09T22:01:59;100229.54;;;13.22;40.84
73566;BME280;61846;52.970;-3.168;2023-04-09T22:04:25;100246.64;;;11.06;44.76
73566;BME280;61846;52.970;-3.168;2023-04-09T22:06:50;100233.19;;;13.38;40.88
73566;BME280;61846;52.970;-3.168;2023-04-09T22:09:15;100239.21;;;13.25;40.15
73566;BME280;61846;52.970;-3.168;2023-04-09T22:11:40;100231.14;;;12.69;41.32
73566;BME280;61846;52.970;-3.168;2023-04-09T22:14:06;100237.82;;;13.04;41.51
73566;BME280;61846;52.970;-3.168;2023-04-09T22:16:31;100249.06;;;10.84;45.61
73566;BME280;61846;52.970;-3.168;2023-04-09T22:18:57;100248.20;;;12.07;43.68
73566;BME280;61846;52.970;-3.168;2023-04-09T22:21:22;100254.50;;;12.46;42.39
73566;BME280;61846;52.970;-3.168;2023-04-09T22:23:48;100244.30;;;12.03;42.68
73566;BME280;61846;52.970;-3.168;2023-04-09T22:26:13;100235.56;;;11.45;44.71
73566;BME280;61846;52.970;-3.168;2023-04-09T22:28:38;100227.70;;;10.99;46.40
73566;BME280;61846;52.970;-3.168;2023-04-09T22:31:04;100206.51;;;10.08;47.95
73566;BME280;61846;52.970;-3.168;2023-04-09T22:33:29;100186.49;;;12.16;43.85
73566;BME280;61846;52.970;-3.168;2023-04-09T22:35:55;100181.33;;;11.67;44.79
73566;BME280;61846;52.970;-3.168;2023-04-09T22:38:20;100169.37;;;12.33;44.32
73566;BME280;61846;52.970;-3.168;2023-04-09T22:40:46;100157.15;;;10.68;47.81
73566;BME280;61846;52.970;-3.168;2023-04-09T22:43:11;100154.19;;;9.99;49.89
73566;BME280;61846;52.970;-3.168;2023-04-09T22:45:36;100156.66;;;10.42;49.11
73566;BME280;61846;52.970;-3.168;2023-04-09T22:48:02;100150.60;;;11.40;48.11
73566;BME280;61846;52.970;-3.168;2023-04-09T22:50:27;100145.56;;;10.87;48.76
73566;BME280;61846;52.970;-3.168;2023-04-09T22:52:53;100141.57;;;9.54;52.33
73566;BME280;61846;52.970;-3.168;2023-04-09T22:55:18;100149.11;;;8.55;55.30
73566;BME280;61846;52.970;-3.168;2023-04-09T22:57:43;100142.38;;;8.81;55.32
73566;BME280;61846;52.970;-3.168;2023-04-09T23:00:09;100140.90;;;7.95;57.57
73566;BME280;61846;52.970;-3.168;2023-04-09T23:02:33;100135.36;;;8.36;57.32
73566;BME280;61846;52.970;-3.168;2023-04-09T23:04:59;100113.34;;;9.66;53.58
73566;BME280;61846;52.970;-3.168;2023-04-09T23:07:24;100126.24;;;9.65;53.90
73566;BME280;61846;52.970;-3.168;2023-04-09T23:09:50;100116.08;;;9.25;55.26
73566;BME280;61846;52.970;-3.168;2023-04-09T23:12:16;100125.94;;;9.54;54.34
73566;BME280;61846;52.970;-3.168;2023-04-09T23:14:41;100120.72;;;9.92;54.05
73566;BME280;61846;52.970;-3.168;2023-04-09T23:17:07;100139.11;;;9.55;54.33
73566;BME280;61846;52.970;-3.168;2023-04-09T23:19:33;100125.86;;;9.85;54.63
73566;BME280;61846;52.970;-3.168;2023-04-09T23:21:59;100125.75;;;8.61;57.21
73566;BME280;61846;52.970;-3.168;2023-04-09T23:24:24;100126.15;;;7.82;60.16
73566;BME280;61846;52.970;-3.168;2023-04-09T23:26:49;100123.03;;;10.60;53.62
73566;BME280;61846;52.970;-3.168;2023-04-09T23:29:14;100118.96;;;9.36;54.85
73566;BME280;61846;52.970;-3.168;2023-04-09T23:31:40;100117.03;;;10.13;54.11
73566;BME280;61846;52.970;-3.168;2023-04-09T23:34:06;100116.76;;;10.51;52.69
73566;BME280;61846;52.970;-3.168;2023-04-09T23:36:32;100109.09;;;11.66;49.46
73566;BME280;61846;52.970;-3.168;2023-04-09T23:38:57;100107.59;;;10.81;51.03
73566;BME280;61846;52.970;-3.168;2023-04-09T23:41:22;100106.80;;;9.02;56.23
73566;BME280;61846;52.970;-3.168;2023-04-09T23:43:48;100108.60;;;9.99;54.19
73566;BME280;61846;52.970;-3.168;2023-04-09T23:46:13;100105.00;;;10.80;52.38
73566;BME280;61846;52.970;-3.168;2023-04-09T23:48:39;100107.89;;;11.28;51.31
73566;BME280;61846;52.970;-3.168;2023-04-09T23:51:05;100103.75;;;11.46;50.66
73566;BME280;61846;52.970;-3.168;2023-04-09T23:53:29;100091.22;;;10.23;52.97
73566;BME280;61846;52.970;-3.168;2023-04-09T23:55:55;100087.42;;;10.24;54.79
73566;BME280;61846;52.970;-3.168;2023-04-09T23:58:21;100080.02;;;9.89;55.21
